Time;durP1;ratioP1;P1;durP2;ratioP2;P2;SDS_P1;SDS_P2;PMS_P1;PMS_P2;Temp;Humidity;BMP_temperature;BMP_pressure;BME280_temperature;BME280_humidity;BME280_pressure;Samples;Min_cycle;Max_cycle;Signal;HPM_P1;HPM_P2
2022/03/30 00:00:11;;;;;;;;;;;;;;;5.73;77.49;99260.13;5073529;28;857;-59
2022/03/30 00:02:37;;;;;;;;;;;;;;;5.73;77.48;99249.94;5073416;28;849;-59
2022/03/30 00:05:04;;;;;;;;;;;;;;;5.60;77.24;99251.41;5073552;28;1881;-59
2022/03/30 00:07:34;;;;;;;;;;;;;;;5.53;78.40;99249.41;5073227;28;849;-59
2022/03/30 00:10:02;;;;;;;;;;;;;;;5.63;78.04;99249.88;5073204;28;885;-59
2022/03/30 00:12:29;;;;;;;;;;;;;;;5.71;77.68;99246.00;5073111;28;940;-59
2022/03/30 00:14:56;;;;;;;;;;;;;;;5.70;78.02;99247.97;5073032;28;1203;-59
2022/03/30 00:17:23;;;;;;;;;;;;;;;5.61;77.99;99250.28;5055175;28;889;-59
2022/03/30 00:19:50;;;;;;;;;;;;;;;5.44;78.45;99248.97;5072908;28;965;-58
2022/03/30 00:22:16;;;;;;;;;;;;;;;5.35;78.51;99254.00;5072982;28;802;-59
2022/03/30 00:24:46;;;;;;;;;;;;;;;5.19;79.09;99250.75;5072812;28;1949;-59
2022/03/30 00:27:12;;;;;;;;;;;;;;;5.10;79.75;99251.84;5072721;28;910;-59
2022/03/30 00:29:40;;;;;;;;;;;;;;;5.06;80.21;99242.81;5072743;28;854;-59
2022/03/30 00:32:06;;;;;;;;;;;;;;;5.02;80.50;99244.75;5072695;28;858;-59
2022/03/30 00:34:33;;;;;;;;;;;;;;;5.09;80.83;99241.25;5072761;28;842;-59
2022/03/30 00:36:59;;;;;;;;;;;;;;;5.04;80.49;99247.88;5072604;28;866;-59
2022/03/30 00:39:26;;;;;;;;;;;;;;;5.16;81.24;99243.28;5072521;28;861;-59
2022/03/30 00:41:53;;;;;;;;;;;;;;;5.21;80.66;99242.94;5072573;28;854;-59
2022/03/30 00:44:20;;;;;;;;;;;;;;;5.17;80.74;99234.69;5072421;28;1910;-59
2022/03/30 00:46:46;;;;;;;;;;;;;;;5.35;81.12;99236.75;5072703;28;787;-59
2022/03/30 00:49:14;;;;;;;;;;;;;;;5.34;80.83;99232.47;5072417;28;818;-59
2022/03/30 00:51:40;;;;;;;;;;;;;;;5.15;80.79;99237.00;5072498;28;893;-59
2022/03/30 00:54:07;;;;;;;;;;;;;;;5.02;80.92;99235.75;5072243;28;862;-59
2022/03/30 00:56:35;;;;;;;;;;;;;;;4.92;81.00;99239.94;5072341;28;865;-59
2022/03/30 00:59:05;;;;;;;;;;;;;;;4.78;81.51;99232.41;5071627;28;835;-59
2022/03/30 01:01:33;;;;;;;;;;;;;;;4.84;82.32;99227.34;5072081;28;946;-59
2022/03/30 01:03:58;;;;;;;;;;;;;;;4.98;83.08;99222.00;5071947;28;1947;-59
2022/03/30 01:06:25;;;;;;;;;;;;;;;5.25;82.70;99230.06;5072227;28;803;-58
2022/03/30 01:08:51;;;;;;;;;;;;;;;5.36;82.25;99219.16;5071919;28;799;-59
2022/03/30 01:11:18;;;;;;;;;;;;;;;5.39;81.85;99227.41;5072038;28;826;-60
2022/03/30 01:13:45;;;;;;;;;;;;;;;5.37;81.86;99215.25;5072307;28;815;-60
2022/03/30 01:16:11;;;;;;;;;;;;;;;5.40;81.93;99220.75;5071835;28;898;-60
2022/03/30 01:18:39;;;;;;;;;;;;;;;5.36;81.62;99211.72;5053892;28;2063;-60
2022/03/30 01:21:07;;;;;;;;;;;;;;;5.30;82.41;99214.03;5071802;28;972;-60
2022/03/30 01:23:33;;;;;;;;;;;;;;;5.27;81.73;99211.25;5071710;28;1960;-60
2022/03/30 01:26:00;;;;;;;;;;;;;;;5.07;82.04;99205.25;5071653;28;1320;-60
2022/03/30 01:28:28;;;;;;;;;;;;;;;4.82;82.24;99207.78;5071784;28;873;-60
2022/03/30 01:33:44;;;;;;;;;;;;;;;4.88;82.97;99195.31;5072061;28;624;-60
2022/03/30 01:36:11;;;;;;;;;;;;;;;4.79;82.93;99205.81;5071856;28;866;-60
2022/03/30 01:38:38;;;;;;;;;;;;;;;4.87;83.07;99205.50;5071693;28;1108;-60
2022/03/30 01:41:07;;;;;;;;;;;;;;;4.84;83.57;99209.00;5071588;28;845;-60
2022/03/30 01:43:33;;;;;;;;;;;;;;;4.76;83.70;99207.34;5072210;28;1921;-60
2022/03/30 01:46:00;;;;;;;;;;;;;;;4.59;83.77;99216.97;5071595;28;869;-60
2022/03/30 01:48:27;;;;;;;;;;;;;;;4.46;84.10;99221.16;5071741;28;913;-60
2022/03/30 01:50:54;;;;;;;;;;;;;;;4.29;84.75;99219.78;5071500;28;791;-60
2022/03/30 01:53:21;;;;;;;;;;;;;;;4.38;85.26;99214.03;5071453;28;854;-60
2022/03/30 01:55:46;;;;;;;;;;;;;;;4.53;85.51;99212.22;5071777;28;798;-60
2022/03/30 01:58:13;;;;;;;;;;;;;;;4.72;85.74;99220.22;5071450;28;814;-60
2022/03/30 02:00:40;;;;;;;;;;;;;;;4.86;85.19;99220.34;5053559;28;2204;-60
2022/03/30 02:03:08;;;;;;;;;;;;;;;4.70;84.60;99217.84;5071248;28;1898;-60
2022/03/30 02:05:34;;;;;;;;;;;;;;;4.73;85.90;99210.84;5053444;28;860;-60
2022/03/30 02:08:02;;;;;;;;;;;;;;;4.89;85.53;99210.59;5071241;28;865;-60
2022/03/30 02:10:29;;;;;;;;;;;;;;;5.00;85.00;99211.47;5071570;28;899;-60
2022/03/30 02:12:58;;;;;;;;;;;;;;;4.87;85.00;99216.44;5075345;28;842;-60
2022/03/30 02:15:25;;;;;;;;;;;;;;;4.86;85.33;99214.06;5075872;28;810;-60
2022/03/30 02:17:52;;;;;;;;;;;;;;;4.78;85.30;99210.50;5075427;28;866;-60
2022/03/30 02:20:18;;;;;;;;;;;;;;;4.79;85.40;99214.81;5075916;28;759;-60
2022/03/30 02:22:45;;;;;;;;;;;;;;;4.62;85.20;99212.69;5075395;28;1886;-60
2022/03/30 02:25:11;;;;;;;;;;;;;;;4.60;85.47;99218.53;5075157;28;1236;-60
2022/03/30 02:27:38;;;;;;;;;;;;;;;4.78;85.75;99224.19;5075084;28;954;-60
2022/03/30 02:30:05;;;;;;;;;;;;;;;4.99;85.49;99220.81;5074998;28;937;-60
2022/03/30 02:32:31;;;;;;;;;;;;;;;5.06;84.98;99220.91;5074973;28;926;-60
2022/03/30 02:34:58;;;;;;;;;;;;;;;4.90;84.64;99225.84;5075348;28;842;-60
2022/03/30 02:37:26;;;;;;;;;;;;;;;4.78;84.91;99234.34;5074833;28;808;-60
2022/03/30 02:39:52;;;;;;;;;;;;;;;4.74;85.17;99225.31;5074938;28;815;-60
2022/03/30 02:42:19;;;;;;;;;;;;;;;4.69;85.37;99226.44;5074980;28;827;-60
2022/03/30 02:44:46;;;;;;;;;;;;;;;4.55;85.52;99216.16;5056734;28;1905;-60
2022/03/30 02:47:12;;;;;;;;;;;;;;;4.46;86.06;99219.19;5074686;28;882;-60
2022/03/30 02:49:39;;;;;;;;;;;;;;;4.45;87.42;99214.88;5074709;28;885;-60
2022/03/30 02:52:06;;;;;;;;;;;;;;;4.52;86.72;99222.34;5074530;28;913;-60
2022/03/30 02:54:33;;;;;;;;;;;;;;;4.50;86.43;99225.50;5074512;28;874;-60
2022/03/30 02:56:59;;;;;;;;;;;;;;;4.45;86.67;99225.03;5074551;28;878;-59
2022/03/30 02:59:26;;;;;;;;;;;;;;;4.37;87.41;99228.84;5074422;28;961;-59
2022/03/30 03:01:54;;;;;;;;;;;;;;;4.25;87.59;99233.44;5074486;28;787;-59
2022/03/30 03:04:21;;;;;;;;;;;;;;;4.14;87.40;99234.44;5074222;28;1906;-59
2022/03/30 03:06:49;;;;;;;;;;;;;;;4.30;88.64;99232.31;5074365;28;889;-59
2022/03/30 03:09:16;;;;;;;;;;;;;;;4.40;88.24;99230.84;5074268;28;934;-59
2022/03/30 03:11:43;;;;;;;;;;;;;;;4.40;88.48;99223.44;5074342;28;862;-59
2022/03/30 03:14:10;;;;;;;;;;;;;;;4.53;88.77;99232.16;5074584;28;810;-59
2022/03/30 03:16:36;;;;;;;;;;;;;;;4.54;88.92;99230.97;5074302;28;798;-59
2022/03/30 03:19:04;;;;;;;;;;;;;;;4.68;89.63;99225.66;5039714;28;1804;-59
2022/03/30 03:21:30;;;;;;;;;;;;;;;4.81;89.30;99228.91;5073546;28;885;-59
2022/03/30 03:23:57;;;;;;;;;;;;;;;4.80;89.27;99223.78;5074299;28;1894;-59
2022/03/30 03:26:24;;;;;;;;;;;;;;;4.52;88.55;99224.31;5073834;28;1422;-59
2022/03/30 03:28:50;;;;;;;;;;;;;;;4.41;89.11;99222.25;5073979;28;864;-59
2022/03/30 03:31:17;;;;;;;;;;;;;;;4.25;89.05;99227.94;5073964;28;873;-59
2022/03/30 03:33:44;;;;;;;;;;;;;;;3.97;88.91;99231.16;5073972;28;834;-59
2022/03/30 03:36:10;;;;;;;;;;;;;;;3.69;89.41;99239.75;5073625;28;914;-59
2022/03/30 03:38:37;;;;;;;;;;;;;;;3.72;91.47;99238.25;5073830;28;886;-59
2022/03/30 03:41:06;;;;;;;;;;;;;;;3.73;90.50;99235.09;5073826;28;830;-59
2022/03/30 03:43:33;;;;;;;;;;;;;;;3.61;91.24;99232.63;5073588;28;1922;-59
2022/03/30 03:45:59;;;;;;;;;;;;;;;3.80;92.84;99243.44;5073741;28;880;-59
2022/03/30 03:48:26;;;;;;;;;;;;;;;4.06;92.21;99244.53;5073658;28;893;-59
2022/03/30 03:50:52;;;;;;;;;;;;;;;4.02;91.49;99247.22;5073500;28;969;-59
2022/03/30 03:53:19;;;;;;;;;;;;;;;4.21;92.01;99242.75;5073846;28;854;-59
2022/03/30 03:55:46;;;;;;;;;;;;;;;4.22;92.04;99252.53;5073514;28;901;-59
2022/03/30 03:58:13;;;;;;;;;;;;;;;4.03;91.67;99248.00;5073432;28;822;-59
2022/03/30 04:00:39;;;;;;;;;;;;;;;3.93;92.06;99254.91;5073459;28;846;-59
2022/03/30 04:03:06;;;;;;;;;;;;;;;3.85;92.31;99254.03;5073263;28;1965;-59
2022/03/30 04:05:33;;;;;;;;;;;;;;;3.78;92.46;99255.91;5073659;28;893;-59
2022/03/30 04:08:00;;;;;;;;;;;;;;;3.75;92.68;99254.66;5073220;28;862;-59
2022/03/30 04:10:26;;;;;;;;;;;;;;;3.84;92.72;99260.66;5073210;28;878;-59
2022/03/30 04:12:53;;;;;;;;;;;;;;;4.03;93.15;99262.47;5073344;28;827;-59
2022/03/30 04:15:20;;;;;;;;;;;;;;;4.14;92.99;99264.53;5073110;28;819;-59
2022/03/30 04:17:47;;;;;;;;;;;;;;;4.27;93.31;99261.19;5055168;28;1180;-59
2022/03/30 04:20:14;;;;;;;;;;;;;;;4.30;92.70;99267.88;5073025;28;856;-59
2022/03/30 04:22:42;;;;;;;;;;;;;;;4.28;92.73;99265.50;5073001;28;814;-59
2022/03/30 04:25:09;;;;;;;;;;;;;;;4.36;93.03;99254.66;5072730;28;1890;-59
2022/03/30 04:27:35;;;;;;;;;;;;;;;4.39;92.60;99257.41;5072845;28;855;-59
2022/03/30 04:30:03;;;;;;;;;;;;;;;4.42;92.46;99250.41;5072828;28;803;-60
2022/03/30 04:32:29;;;;;;;;;;;;;;;4.55;92.52;99257.19;5072673;28;863;-59
2022/03/30 04:34:55;;;;;;;;;;;;;;;4.65;92.20;99264.75;5071771;28;885;-59
2022/03/30 04:37:22;;;;;;;;;;;;;;;4.70;91.90;99252.66;5072560;28;882;-59
2022/03/30 04:39:49;;;;;;;;;;;;;;;4.76;92.06;99261.31;5072800;28;864;-59
2022/03/30 04:42:15;;;;;;;;;;;;;;;4.83;91.98;99261.41;5072455;28;886;-59
2022/03/30 04:44:42;;;;;;;;;;;;;;;4.99;91.91;99259.16;5072363;28;1910;-59
2022/03/30 04:47:08;;;;;;;;;;;;;;;5.27;91.53;99253.16;5072455;28;856;-59
2022/03/30 04:49:35;;;;;;;;;;;;;;;5.53;91.11;99262.34;5072523;28;861;-59
2022/03/30 04:52:01;;;;;;;;;;;;;;;5.75;89.92;99268.75;5072313;28;842;-59
2022/03/30 04:54:29;;;;;;;;;;;;;;;5.94;88.03;99264.94;5072558;28;870;-59
2022/03/30 04:56:56;;;;;;;;;;;;;;;6.13;87.13;99266.63;5072202;28;846;-59
2022/03/30 04:59:22;;;;;;;;;;;;;;;6.32;86.56;99262.78;5072285;28;1019;-59
2022/03/30 05:01:49;;;;;;;;;;;;;;;6.54;85.80;99266.38;5072232;28;803;-59
2022/03/30 05:04:16;;;;;;;;;;;;;;;6.68;84.47;99273.88;5072228;28;1953;-59
2022/03/30 05:06:43;;;;;;;;;;;;;;;6.79;84.56;99276.66;5072222;28;860;-59
2022/03/30 05:09:11;;;;;;;;;;;;;;;6.99;83.87;99275.09;5072139;28;810;-59
2022/03/30 05:11:39;;;;;;;;;;;;;;;7.16;82.30;99279.03;5072031;28;850;-60
2022/03/30 05:14:05;;;;;;;;;;;;;;;7.38;81.36;99284.53;5072132;28;859;-59
2022/03/30 05:16:33;;;;;;;;;;;;;;;7.52;80.16;99279.03;5072116;28;818;-60
2022/03/30 05:19:01;;;;;;;;;;;;;;;7.66;79.46;99284.53;5071856;28;930;-59
2022/03/30 05:21:29;;;;;;;;;;;;;;;7.71;79.03;99283.31;5071981;28;814;-60
2022/03/30 05:23:55;;;;;;;;;;;;;;;7.90;78.30;99276.59;5072036;28;1914;-59
2022/03/30 05:26:22;;;;;;;;;;;;;;;8.09;77.32;99284.41;5053847;28;1775;-60
2022/03/30 05:28:49;;;;;;;;;;;;;;;8.15;76.50;99290.28;5071778;28;1049;-59
2022/03/30 05:31:15;;;;;;;;;;;;;;;8.28;76.51;99287.88;5071779;28;913;-59
2022/03/30 05:33:42;;;;;;;;;;;;;;;8.43;76.70;99274.84;5071647;28;889;-59
2022/03/30 05:36:08;;;;;;;;;;;;;;;8.68;75.57;99277.50;5071644;28;894;-59
2022/03/30 05:38:34;;;;;;;;;;;;;;;9.03;74.62;99270.97;5071605;28;854;-59
2022/03/30 05:41:02;;;;;;;;;;;;;;;9.20;73.19;99263.75;5071675;28;803;-59
2022/03/30 05:43:29;;;;;;;;;;;;;;;9.52;72.77;99268.22;5071367;28;1914;-59
2022/03/30 05:45:55;;;;;;;;;;;;;;;9.98;71.61;99261.44;5071382;28;850;-59
2022/03/30 05:48:22;;;;;;;;;;;;;;;10.54;70.16;99264.72;5071560;28;823;-59
2022/03/30 05:50:51;;;;;;;;;;;;;;;11.24;68.45;99258.56;5071511;28;906;-59
2022/03/30 05:53:18;;;;;;;;;;;;;;;11.80;66.09;99262.75;5071419;28;878;-60
2022/03/30 05:55:45;;;;;;;;;;;;;;;12.28;64.69;99260.66;5071339;28;949;-59
2022/03/30 05:58:12;;;;;;;;;;;;;;;12.62;63.07;99257.56;5071388;28;918;-59
2022/03/30 06:00:39;;;;;;;;;;;;;;;12.90;61.73;99267.22;5071639;28;881;-59
2022/03/30 06:03:06;;;;;;;;;;;;;;;13.07;61.00;99260.47;5071610;28;1910;-59
2022/03/30 06:05:32;;;;;;;;;;;;;;;13.15;61.86;99255.53;5071265;28;873;-59
2022/03/30 06:07:59;;;;;;;;;;;;;;;13.31;60.83;99260.31;5071423;28;835;-59
2022/03/30 06:10:26;;;;;;;;;;;;;;;13.77;59.57;99257.59;5071438;28;958;-59
2022/03/30 06:12:53;;;;;;;;;;;;;;;13.71;58.94;99257.34;5071340;28;787;-59
2022/03/30 06:15:20;;;;;;;;;;;;;;;13.75;59.30;99260.81;5071157;28;851;-60
2022/03/30 06:17:48;;;;;;;;;;;;;;;14.08;57.91;99267.06;5071198;28;1178;-59
2022/03/30 06:20:14;;;;;;;;;;;;;;;14.34;57.45;99266.34;5071252;28;861;-59
2022/03/30 06:22:43;;;;;;;;;;;;;;;14.69;56.50;99259.75;5071184;28;868;-59
2022/03/30 06:25:11;;;;;;;;;;;;;;;14.40;56.50;99253.44;5071032;28;1973;-60
2022/03/30 06:27:38;;;;;;;;;;;;;;;14.29;57.31;99254.56;5071046;28;974;-60
2022/03/30 06:30:06;;;;;;;;;;;;;;;14.29;57.28;99249.00;5071490;28;896;-59
2022/03/30 06:32:33;;;;;;;;;;;;;;;14.68;56.95;99263.00;5071006;28;926;-59
2022/03/30 06:35:00;;;;;;;;;;;;;;;14.97;55.82;99268.44;5070911;28;914;-59
2022/03/30 06:37:26;;;;;;;;;;;;;;;15.22;54.18;99276.00;5071013;28;865;-59
2022/03/30 06:39:53;;;;;;;;;;;;;;;15.36;54.28;99279.53;5071029;28;791;-59
2022/03/30 06:42:21;;;;;;;;;;;;;;;15.25;53.43;99277.09;5071290;28;862;-60
2022/03/30 06:44:47;;;;;;;;;;;;;;;15.42;55.01;99272.19;5070846;28;1905;-59
2022/03/30 06:47:14;;;;;;;;;;;;;;;15.48;52.95;99281.53;5070992;28;866;-60
2022/03/30 06:49:41;;;;;;;;;;;;;;;15.55;52.91;99281.28;5070983;28;867;-59
2022/03/30 06:52:09;;;;;;;;;;;;;;;15.68;54.31;99272.91;5070998;28;810;-59
2022/03/30 06:54:37;;;;;;;;;;;;;;;15.93;52.27;99277.63;5053030;28;842;-59
2022/03/30 06:57:04;;;;;;;;;;;;;;;15.83;51.91;99273.22;5072346;28;904;-60
2022/03/30 06:59:30;;;;;;;;;;;;;;;15.75;52.94;99274.72;5074523;28;775;-59
2022/03/30 07:01:58;;;;;;;;;;;;;;;15.98;52.95;99274.28;5074563;28;865;-59
2022/03/30 07:04:25;;;;;;;;;;;;;;;16.05;51.91;99273.25;5074303;28;1973;-59
2022/03/30 07:12:23;;;;;;;;;;;;;;;16.50;50.83;99272.00;5074347;28;612;-59
2022/03/30 07:14:49;;;;;;;;;;;;;;;16.31;49.70;99282.25;5074305;28;815;-59
2022/03/30 07:17:16;;;;;;;;;;;;;;;16.07;51.36;99273.59;5074323;28;799;-59
2022/03/30 07:19:44;;;;;;;;;;;;;;;16.15;50.83;99274.09;5074283;28;811;-59
2022/03/30 07:22:13;;;;;;;;;;;;;;;16.30;50.63;99275.13;5073988;28;875;-59
2022/03/30 07:24:40;;;;;;;;;;;;;;;16.16;49.69;99278.44;5073849;28;1889;-59
2022/03/30 07:27:08;;;;;;;;;;;;;;;15.77;51.97;99275.00;5074072;28;838;-59
2022/03/30 07:29:34;;;;;;;;;;;;;;;15.85;51.91;99274.34;5073909;28;931;-59
2022/03/30 07:32:02;;;;;;;;;;;;;;;16.13;51.03;99278.13;5074072;28;795;-59
2022/03/30 07:34:30;;;;;;;;;;;;;;;16.22;50.84;99271.06;5073732;28;976;-59
2022/03/30 07:36:56;;;;;;;;;;;;;;;16.19;51.51;99281.09;5073877;28;822;-59
2022/03/30 07:39:23;;;;;;;;;;;;;;;16.24;50.69;99283.31;5073869;28;866;-60
2022/03/30 07:41:50;;;;;;;;;;;;;;;16.45;50.24;99283.72;5074130;28;1147;-59
2022/03/30 07:44:16;;;;;;;;;;;;;;;16.49;50.17;99284.38;5073784;28;1894;-59
2022/03/30 07:46:44;;;;;;;;;;;;;;;16.31;50.81;99287.84;5073605;28;901;-59
2022/03/30 07:49:11;;;;;;;;;;;;;;;16.72;48.84;99283.91;5073544;28;937;-59
2022/03/30 07:51:37;;;;;;;;;;;;;;;16.92;48.98;99286.34;5073530;28;953;-59
2022/03/30 07:54:04;;;;;;;;;;;;;;;16.96;47.82;99285.44;5073912;28;877;-60
2022/03/30 07:56:31;;;;;;;;;;;;;;;16.87;49.20;99278.56;5073543;28;854;-60
2022/03/30 07:59:00;;;;;;;;;;;;;;;17.11;48.95;99278.03;5073411;28;1236;-60
2022/03/30 08:01:27;;;;;;;;;;;;;;;17.10;49.36;99282.09;5073294;28;946;-60
2022/03/30 08:03:53;;;;;;;;;;;;;;;17.42;49.95;99289.16;5073125;28;1949;-60
2022/03/30 08:06:20;;;;;;;;;;;;;;;17.12;49.61;99285.97;5055380;28;882;-60
2022/03/30 08:08:47;;;;;;;;;;;;;;;16.66;49.42;99282.16;5073115;28;954;-59
2022/03/30 08:11:13;;;;;;;;;;;;;;;16.63;50.49;99294.25;5073291;28;791;-59
2022/03/30 08:13:40;;;;;;;;;;;;;;;17.31;50.07;99294.41;5073396;28;891;-59
2022/03/30 08:16:06;;;;;;;;;;;;;;;17.34;49.14;99280.28;5073022;28;926;-59
2022/03/30 08:18:33;;;;;;;;;;;;;;;17.13;50.74;99295.91;5073026;28;925;-60
2022/03/30 08:23:44;;;;;;;;;;;;;;;17.20;49.26;99282.88;5072933;28;1874;-59
2022/03/30 08:26:11;;;;;;;;;;;;;;;17.29;49.93;99282.91;5072655;28;1244;-60
2022/03/30 08:28:38;;;;;;;;;;;;;;;17.35;48.62;99267.13;5072837;28;921;-59
2022/03/30 08:31:04;;;;;;;;;;;;;;;17.46;48.57;99275.06;5072840;28;842;-60
2022/03/30 08:33:31;;;;;;;;;;;;;;;17.95;48.70;99272.16;5072619;28;953;-60
2022/03/30 08:35:58;;;;;;;;;;;;;;;17.74;48.18;99264.69;5072797;28;802;-60
2022/03/30 08:38:25;;;;;;;;;;;;;;;17.80;48.95;99259.25;5072725;28;838;-60
2022/03/30 08:40:56;;;;;;;;;;;;;;;17.75;46.79;99269.81;5072640;28;802;-59
2022/03/30 08:43:22;;;;;;;;;;;;;;;17.60;46.53;99256.91;5072430;28;1975;-59
2022/03/30 08:45:49;;;;;;;;;;;;;;;17.75;46.12;99255.84;5072524;28;830;-58
2022/03/30 08:48:16;;;;;;;;;;;;;;;18.01;46.44;99252.75;5072484;28;881;-59
2022/03/30 08:50:44;;;;;;;;;;;;;;;18.10;45.41;99252.75;5072465;28;931;-59
2022/03/30 08:53:13;;;;;;;;;;;;;;;18.30;45.20;99254.28;5072322;28;941;-59
2022/03/30 08:55:39;;;;;;;;;;;;;;;18.40;43.98;99252.25;5072396;28;1056;-59
2022/03/30 08:58:06;;;;;;;;;;;;;;;18.31;44.30;99244.66;5072282;28;881;-59
2022/03/30 09:00:34;;;;;;;;;;;;;;;17.95;44.76;99251.81;5072585;28;810;-59
2022/03/30 09:03:00;;;;;;;;;;;;;;;18.10;45.25;99244.34;5072099;28;865;-59
2022/03/30 09:05:29;;;;;;;;;;;;;;;17.96;46.60;99244.97;5072234;28;814;-59
2022/03/30 09:08:07;;;;;;;;;;;;;;;18.14;48.88;99233.78;5072121;28;810;-60
2022/03/30 09:10:36;;;;;;;;;;;;;;;18.62;46.01;99241.59;5071956;28;958;-59
2022/03/30 09:13:04;;;;;;;;;;;;;;;18.82;44.48;99226.31;5071965;28;862;-59
2022/03/30 09:15:32;;;;;;;;;;;;;;;18.57;44.64;99228.25;5072075;28;826;-59
2022/03/30 09:18:00;;;;;;;;;;;;;;;18.60;43.81;99218.13;5072011;28;873;-60
2022/03/30 09:20:27;;;;;;;;;;;;;;;18.80;45.03;99215.59;5071386;28;905;-59
2022/03/30 09:22:55;;;;;;;;;;;;;;;18.50;43.87;99217.41;5054052;28;922;-59
2022/03/30 09:25:29;;;;;;;;;;;;;;;18.50;44.46;99212.56;5071688;28;1984;-59
2022/03/30 09:27:57;;;;;;;;;;;;;;;18.31;44.73;99213.88;5053861;28;1299;-60
2022/03/30 09:30:25;;;;;;;;;;;;;;;18.40;45.44;99204.69;5071625;28;954;-60
2022/03/30 09:32:55;;;;;;;;;;;;;;;18.67;46.38;99210.19;5071676;28;932;-60
2022/03/30 09:35:28;;;;;;;;;;;;;;;18.68;44.81;99208.16;5072307;28;822;-60
2022/03/30 09:38:13;;;;;;;;;;;;;;;18.81;44.33;99203.16;5071558;28;956;-59
2022/03/30 09:40:44;;;;;;;;;;;;;;;18.90;42.77;99208.69;5071558;28;906;-60
2022/03/30 09:43:14;;;;;;;;;;;;;;;19.08;43.08;99201.47;5071539;28;1982;-59
2022/03/30 09:45:41;;;;;;;;;;;;;;;19.03;44.11;99193.69;5071889;28;870;-59
2022/03/30 09:48:14;;;;;;;;;;;;;;;18.85;42.46;99195.34;5071587;28;943;-60
2022/03/30 09:50:46;;;;;;;;;;;;;;;18.66;44.15;99180.63;5071563;28;795;-60
2022/03/30 09:53:13;;;;;;;;;;;;;;;18.79;43.44;99180.44;5071812;28;751;-59
2022/03/30 09:55:58;;;;;;;;;;;;;;;18.96;42.33;99169.63;5071754;28;885;-59
2022/03/30 10:44:21;;;;;;;;;;;;;;;20.59;40.49;99108.16;5051621;27;3335903;-58
2022/03/30 10:47:05;;;;;;;;;;;;;;;20.59;39.15;99119.41;5171506;27;829;-59
2022/03/30 10:49:38;;;;;;;;;;;;;;;20.56;39.31;99103.47;5171411;27;848;-58
2022/03/30 10:52:23;;;;;;;;;;;;;;;20.44;39.11;99110.22;5152727;27;1835;-58
2022/03/30 10:54:55;;;;;;;;;;;;;;;20.49;41.64;99115.13;5171277;27;904;-58
2022/03/30 10:57:41;;;;;;;;;;;;;;;20.54;40.08;99103.19;5171210;27;948;-58
2022/03/30 11:00:07;;;;;;;;;;;;;;;20.68;40.36;99098.84;5171173;27;955;-58
2022/03/30 11:02:43;;;;;;;;;;;;;;;20.62;39.94;99097.22;5171007;27;1909;-58
2022/03/30 11:05:10;;;;;;;;;;;;;;;20.77;38.96;99092.31;5171330;27;802;-59
2022/03/30 11:07:38;;;;;;;;;;;;;;;21.13;38.31;99081.81;5171031;27;901;-58
2022/03/30 11:10:14;;;;;;;;;;;;;;;21.10;38.29;99079.97;5171034;27;867;-59
2022/03/30 11:12:56;;;;;;;;;;;;;;;21.02;37.95;99076.81;5171004;27;797;-58
2022/03/30 11:15:23;;;;;;;;;;;;;;;21.02;38.58;99068.41;5171336;27;985;-60
2022/03/30 11:17:50;;;;;;;;;;;;;;;21.12;37.93;99077.44;5170946;27;801;-59
2022/03/30 11:20:19;;;;;;;;;;;;;;;21.45;40.14;99063.03;5170731;27;837;-60
2022/03/30 11:22:47;;;;;;;;;;;;;;;22.10;37.79;99058.97;5170853;27;1944;-60
2022/03/30 11:25:24;;;;;;;;;;;;;;;22.25;36.07;99047.59;5170576;27;885;-60
2022/03/30 11:28:11;;;;;;;;;;;;;;;22.06;36.07;99052.81;5170618;27;925;-59
2022/03/30 11:30:39;;;;;;;;;;;;;;;22.31;35.78;99054.03;5152776;27;1362;-60
2022/03/30 11:33:19;;;;;;;;;;;;;;;22.27;36.03;99045.06;5170592;27;809;-60
2022/03/30 11:35:48;;;;;;;;;;;;;;;22.19;34.11;99044.72;5170467;27;944;-59
2022/03/30 12:02:45;;;;;;;;;;;;;;;22.44;32.79;99031.84;5037334;27;3164976;-59
2022/03/30 12:05:12;;;;;;;;;;;;;;;22.51;33.23;99039.06;5150608;27;852;-60
2022/03/30 12:07:39;;;;;;;;;;;;;;;22.72;33.94;99025.59;5150694;27;877;-59
2022/03/30 12:10:11;;;;;;;;;;;;;;;22.96;32.53;99009.06;5150377;27;1120;-59
2022/03/30 12:12:40;;;;;;;;;;;;;;;23.21;32.73;99012.19;5150717;27;861;-59
2022/03/30 12:15:16;;;;;;;;;;;;;;;23.96;32.18;99020.25;5150300;27;960;-59
2022/03/30 12:17:48;;;;;;;;;;;;;;;24.11;32.14;99017.16;5150383;27;880;-59
2022/03/30 12:20:25;;;;;;;;;;;;;;;23.97;31.60;99013.31;5150295;27;1963;-59
2022/03/30 12:22:59;;;;;;;;;;;;;;;23.43;30.80;99005.84;5150197;27;1119;-59
2022/03/30 12:25:28;;;;;;;;;;;;;;;23.23;31.69;98995.56;5150235;27;897;-59
2022/03/30 12:27:55;;;;;;;;;;;;;;;23.27;32.04;99001.72;5150063;27;866;-59
2022/03/30 12:30:22;;;;;;;;;;;;;;;23.75;30.88;98995.09;5150179;27;840;-60
2022/03/30 12:32:49;;;;;;;;;;;;;;;23.96;30.37;99009.75;5131601;27;972;-59
2022/03/30 12:35:16;;;;;;;;;;;;;;;23.88;29.78;99002.31;5150040;27;880;-59
2022/03/30 12:37:46;;;;;;;;;;;;;;;23.90;30.89;98988.44;5150019;27;844;-59
2022/03/30 12:40:19;;;;;;;;;;;;;;;23.55;30.69;98990.47;5149973;27;810;-60
2022/03/30 12:42:47;;;;;;;;;;;;;;;23.32;31.23;98981.25;5149834;27;853;-59
2022/03/30 12:45:16;;;;;;;;;;;;;;;23.31;31.76;98984.56;5149949;27;970;-59
2022/03/30 12:47:55;;;;;;;;;;;;;;;23.76;31.80;98976.91;5150317;27;874;-59
2022/03/30 12:50:27;;;;;;;;;;;;;;;23.91;30.06;98976.63;5149670;27;998;-59
2022/03/30 12:52:54;;;;;;;;;;;;;;;24.06;29.82;98970.72;5149560;27;877;-59
2022/03/30 12:55:37;;;;;;;;;;;;;;;23.99;29.34;98965.59;5149593;27;965;-59
2022/03/30 12:58:11;;;;;;;;;;;;;;;23.82;29.44;98974.09;5131216;27;889;-59
2022/03/30 13:00:38;;;;;;;;;;;;;;;23.42;31.70;98974.03;5149038;27;2012;-59
2022/03/30 13:03:15;;;;;;;;;;;;;;;23.48;32.87;98970.47;5149598;27;1303;-59
2022/03/30 13:06:01;;;;;;;;;;;;;;;23.68;31.81;98970.22;5149541;27;797;-59
2022/03/30 13:08:28;;;;;;;;;;;;;;;24.02;31.12;98964.56;5149285;27;856;-59
2022/03/30 13:10:57;;;;;;;;;;;;;;;24.47;31.08;98958.78;5149350;27;895;-59
2022/03/30 13:13:24;;;;;;;;;;;;;;;24.70;30.46;98950.25;5139392;27;925;-59
2022/03/30 13:15:52;;;;;;;;;;;;;;;24.59;29.26;98951.84;5135487;27;860;-59
2022/03/30 13:18:21;;;;;;;;;;;;;;;23.96;30.65;98961.75;5135268;27;897;-59
2022/03/30 13:20:55;;;;;;;;;;;;;;;23.37;30.92;98957.91;5135378;27;1941;-59
2022/03/30 13:23:32;;;;;;;;;;;;;;;22.99;32.45;98948.84;5135225;27;842;-60
2022/03/30 13:26:00;;;;;;;;;;;;;;;22.79;32.60;98943.44;5135247;27;972;-59
2022/03/30 13:28:27;;;;;;;;;;;;;;;22.41;32.74;98966.06;5135230;27;842;-59
2022/03/30 13:30:54;;;;;;;;;;;;;;;22.28;33.11;98956.53;5135060;27;889;-59
2022/03/30 13:33:21;;;;;;;;;;;;;;;22.41;33.34;98954.81;5135019;27;924;-60
2022/03/30 13:35:48;;;;;;;;;;;;;;;22.40;33.00;98958.13;5116720;27;699;-59
2022/03/30 13:38:16;;;;;;;;;;;;;;;22.20;33.73;98954.16;5135060;27;814;-59
2022/03/30 13:40:43;;;;;;;;;;;;;;;22.08;33.13;98954.59;5134873;27;1968;-60
2022/03/30 13:43:10;;;;;;;;;;;;;;;22.05;32.82;98953.56;5134970;27;801;-59
2022/03/30 13:45:37;;;;;;;;;;;;;;;22.37;33.74;98962.72;5135075;27;1004;-59
2022/03/30 13:48:04;;;;;;;;;;;;;;;22.36;33.18;98960.41;5134873;27;801;-59
2022/03/30 13:50:31;;;;;;;;;;;;;;;22.25;32.86;98955.47;5134711;27;841;-59
2022/03/30 13:53:02;;;;;;;;;;;;;;;22.16;33.46;98956.44;5134734;27;818;-60
2022/03/30 13:55:32;;;;;;;;;;;;;;;22.15;33.47;98949.28;5134731;27;817;-59
2022/03/30 13:58:00;;;;;;;;;;;;;;;22.41;33.01;98956.84;5134564;27;894;-59
2022/03/30 14:00:27;;;;;;;;;;;;;;;22.70;32.82;98952.09;5134147;27;1978;-60
2022/03/30 14:02:57;;;;;;;;;;;;;;;22.69;32.40;98954.16;5134473;27;901;-59
2022/03/30 14:05:25;;;;;;;;;;;;;;;22.85;31.73;98963.91;5134616;27;905;-59
2022/03/30 14:07:53;;;;;;;;;;;;;;;23.30;31.84;98946.34;5134861;27;870;-60
2022/03/30 14:10:24;;;;;;;;;;;;;;;23.96;30.13;98949.69;5134648;27;833;-59
2022/03/30 14:12:51;;;;;;;;;;;;;;;24.29;30.04;98954.50;5134328;27;861;-59
2022/03/30 14:15:19;;;;;;;;;;;;;;;24.15;29.51;98938.63;5134253;27;850;-59
2022/03/30 14:17:46;;;;;;;;;;;;;;;23.80;28.93;98948.44;5134162;27;881;-59
2022/03/30 14:20:13;;;;;;;;;;;;;;;23.26;29.45;98941.00;5134219;27;857;-59
2022/03/30 14:22:43;;;;;;;;;;;;;;;23.11;30.74;98940.44;5134043;27;1893;-60
2022/03/30 14:25:11;;;;;;;;;;;;;;;22.77;31.13;98937.53;5133008;27;829;-59
2022/03/30 14:27:38;;;;;;;;;;;;;;;22.71;31.42;98937.50;5134125;27;880;-60
2022/03/30 14:30:09;;;;;;;;;;;;;;;22.93;32.06;98936.03;5133937;27;960;-60
2022/03/30 14:32:36;;;;;;;;;;;;;;;22.98;30.95;98941.69;5133961;27;881;-59
2022/03/30 14:35:04;;;;;;;;;;;;;;;22.77;30.21;98937.53;5133773;27;900;-59